Time;durP1;ratioP1;P1;durP2;ratioP2;P2;SDS_P1;SDS_P2;PMS_P1;PMS_P2;Temp;Humidity;BMP_temperature;BMP_pressure;BME280_temperature;BME280_humidity;BME280_pressure;Samples;Min_cycle;Max_cycle;Signal;HPM_P1;HPM_P2
2022/02/28 00:00:23;;;;;;;24.55;17.80;;;;;;;;;;4996691;28;20026;-73
2022/02/28 00:02:50;;;;;;;32.92;21.58;;;;;;;;;;4998827;28;20054;-74
2022/02/28 00:05:18;;;;;;;32.90;22.00;;;;;;;;;;4997382;28;20435;-73
2022/02/28 00:07:49;;;;;;;27.88;18.73;;;;;;;;;;4996900;28;20050;-73
2022/02/28 00:10:16;;;;;;;24.63;17.23;;;;;;;;;;5000106;28;20022;-72
2022/02/28 00:12:45;;;;;;;28.50;19.05;;;;;;;;;;4993697;28;20023;-73
2022/02/28 00:15:13;;;;;;;28.83;18.48;;;;;;;;;;4980345;28;20091;-72
2022/02/28 00:17:39;;;;;;;18.80;13.60;;;;;;;;;;4987271;28;20058;-73
2022/02/28 00:20:16;;;;;;;27.23;17.35;;;;;;;;;;4999208;28;20476;-75
2022/02/28 00:22:42;;;;;;;20.63;11.90;;;;;;;;;;4999067;28;20049;-72
2022/02/28 00:25:09;;;;;;;19.98;13.43;;;;;;;;;;4996707;28;20039;-73
2022/02/28 00:27:35;;;;;;;19.60;11.38;;;;;;;;;;4997098;28;20031;-73
2022/02/28 00:30:01;;;;;;;16.67;10.82;;;;;;;;;;4995269;28;20484;-73
2022/02/28 00:32:28;;;;;;;16.17;9.75;;;;;;;;;;4998459;28;20038;-74
2022/02/28 00:34:54;;;;;;;12.18;7.60;;;;;;;;;;4999841;28;20026;-72
2022/02/28 00:37:20;;;;;;;12.65;6.40;;;;;;;;;;4997246;28;20117;-73
2022/02/28 00:39:46;;;;;;;10.68;6.60;;;;;;;;;;4996819;28;20538;-73
2022/02/28 00:42:13;;;;;;;13.85;6.82;;;;;;;;;;4996113;28;20031;-72
2022/02/28 00:44:39;;;;;;;10.82;7.03;;;;;;;;;;4997680;28;20026;-72
2022/02/28 00:47:07;;;;;;;10.20;6.63;;;;;;;;;;4997509;28;20041;-73
2022/02/28 00:49:33;;;;;;;12.02;6.20;;;;;;;;;;5000381;28;20357;-73
2022/02/28 00:51:59;;;;;;;11.73;5.95;;;;;;;;;;5001653;28;20376;-73
2022/02/28 00:54:27;;;;;;;9.88;6.10;;;;;;;;;;5001326;28;20235;-72
2022/02/28 00:56:54;;;;;;;10.50;6.22;;;;;;;;;;4982502;28;20054;-73
2022/02/28 00:59:20;;;;;;;10.98;5.60;;;;;;;;;;4996093;28;20114;-72
2022/02/28 01:01:46;;;;;;;11.65;6.10;;;;;;;;;;5001492;28;20045;-72
2022/02/28 01:04:12;;;;;;;11.60;6.18;;;;;;;;;;4999589;28;20026;-73
2022/02/28 01:06:38;;;;;;;9.57;5.80;;;;;;;;;;5000317;28;20026;-72
2022/02/28 01:09:05;;;;;;;13.00;6.22;;;;;;;;;;4999995;28;20022;-73
2022/02/28 01:11:31;;;;;;;10.25;6.25;;;;;;;;;;4988638;28;20034;-73
2022/02/28 01:13:58;;;;;;;11.45;6.75;;;;;;;;;;4999815;28;20087;-72
2022/02/28 01:16:30;;;;;;;11.20;6.28;;;;;;;;;;4999926;28;20045;-73
2022/02/28 01:18:56;;;;;;;11.27;6.25;;;;;;;;;;5002235;28;20031;-72
2022/02/28 01:21:22;;;;;;;12.48;6.55;;;;;;;;;;5001591;28;20054;-73
2022/02/28 01:23:49;;;;;;;11.90;6.35;;;;;;;;;;4999136;28;20074;-72
2022/02/28 01:26:15;;;;;;;11.88;6.55;;;;;;;;;;5000455;28;20030;-73
2022/02/28 01:28:41;;;;;;;11.23;6.20;;;;;;;;;;5000182;28;20388;-72
2022/02/28 01:31:07;;;;;;;11.68;6.65;;;;;;;;;;5000868;28;20034;-72
2022/02/28 01:33:33;;;;;;;11.98;6.45;;;;;;;;;;5002057;28;20598;-73
2022/02/28 01:36:02;;;;;;;12.15;6.75;;;;;;;;;;5000408;28;20019;-73
2022/02/28 01:38:29;;;;;;;11.82;6.57;;;;;;;;;;4992466;28;20062;-73
2022/02/28 01:40:55;;;;;;;9.73;6.25;;;;;;;;;;4981741;28;20023;-72
2022/02/28 01:43:21;;;;;;;10.98;5.97;;;;;;;;;;4995330;28;20041;-72
2022/02/28 01:45:47;;;;;;;11.38;6.60;;;;;;;;;;5000213;28;20495;-73
2022/02/28 01:48:13;;;;;;;10.23;6.45;;;;;;;;;;4996320;28;20452;-73
2022/02/28 01:50:39;;;;;;;11.65;6.70;;;;;;;;;;4982663;28;20105;-74
2022/02/28 01:53:11;;;;;;;10.90;6.88;;;;;;;;;;5002683;28;20022;-73
2022/02/28 01:55:38;;;;;;;11.13;6.72;;;;;;;;;;4980369;28;20476;-72
2022/02/28 01:58:04;;;;;;;9.60;6.70;;;;;;;;;;4999920;28;20373;-72
2022/02/28 02:00:31;;;;;;;11.63;6.75;;;;;;;;;;4989693;28;20105;-73
2022/02/28 02:02:59;;;;;;;10.60;6.90;;;;;;;;;;4995202;28;20106;-72
2022/02/28 02:05:25;;;;;;;12.88;6.75;;;;;;;;;;4989544;28;20030;-74
2022/02/28 02:07:51;;;;;;;10.73;6.95;;;;;;;;;;4998063;28;20026;-73
2022/02/28 02:10:18;;;;;;;10.90;6.60;;;;;;;;;;5001104;28;20041;-73
2022/02/28 02:12:52;;;;;;;14.32;8.35;;;;;;;;;;4993998;28;20105;-72
2022/02/28 02:15:23;;;;;;;15.05;7.60;;;;;;;;;;4979015;28;20030;-73
2022/02/28 02:17:49;;;;;;;11.80;6.40;;;;;;;;;;4990803;28;20030;-73
2022/02/28 02:20:18;;;;;;;11.90;7.30;;;;;;;;;;4995191;28;20472;-73
2022/02/28 02:22:57;;;;;;;12.57;6.63;;;;;;;;;;4996019;28;20021;-74
2022/02/28 02:25:24;;;;;;;11.85;7.05;;;;;;;;;;4979982;28;20046;-71
2022/02/28 02:27:52;;;;;;;16.85;9.35;;;;;;;;;;4994341;28;20106;-72
2022/02/28 02:30:18;;;;;;;17.98;10.15;;;;;;;;;;4986841;28;20045;-72
2022/02/28 02:32:44;;;;;;;11.02;6.30;;;;;;;;;;4998402;28;20057;-72
2022/02/28 02:35:13;;;;;;;13.80;7.28;;;;;;;;;;4997315;28;20057;-73
2022/02/28 02:37:40;;;;;;;12.48;7.00;;;;;;;;;;4985261;28;20062;-72
2022/02/28 02:40:12;;;;;;;11.70;7.07;;;;;;;;;;4981582;28;20035;-73
2022/02/28 02:42:39;;;;;;;13.02;7.47;;;;;;;;;;4993213;28;20503;-73
2022/02/28 02:45:06;;;;;;;16.67;8.98;;;;;;;;;;4997112;28;20053;-72
2022/02/28 02:47:32;;;;;;;11.75;7.20;;;;;;;;;;4998616;28;20389;-73
2022/02/28 02:49:58;;;;;;;14.18;7.95;;;;;;;;;;4996785;28;20105;-72
2022/02/28 02:52:24;;;;;;;13.18;7.72;;;;;;;;;;4997572;28;20027;-73
2022/02/28 02:54:50;;;;;;;12.70;7.40;;;;;;;;;;4998075;28;20041;-73
2022/02/28 02:57:18;;;;;;;13.38;7.43;;;;;;;;;;4997810;28;20105;-73
2022/02/28 02:59:44;;;;;;;16.48;8.48;;;;;;;;;;4996902;28;20033;-72
2022/02/28 03:02:10;;;;;;;12.50;7.18;;;;;;;;;;4996522;28;20022;-72
2022/02/28 03:04:37;;;;;;;12.45;7.28;;;;;;;;;;4998014;28;20023;-72
2022/02/28 03:07:03;;;;;;;14.43;8.13;;;;;;;;;;4998485;28;20114;-72
2022/02/28 03:09:29;;;;;;;15.35;8.35;;;;;;;;;;4979278;28;20042;-74
2022/02/28 03:11:59;;;;;;;12.70;7.60;;;;;;;;;;4998208;28;20073;-73
2022/02/28 03:14:26;;;;;;;14.00;7.47;;;;;;;;;;4976447;28;20094;-73
2022/02/28 03:16:52;;;;;;;12.43;7.60;;;;;;;;;;4979090;28;20039;-72
2022/02/28 03:19:18;;;;;;;13.50;7.80;;;;;;;;;;4995475;28;20031;-73
2022/02/28 03:21:44;;;;;;;14.25;7.55;;;;;;;;;;4996607;28;20038;-73
2022/02/28 03:24:10;;;;;;;14.38;7.50;;;;;;;;;;4997388;28;20125;-73
2022/02/28 03:26:36;;;;;;;13.30;7.57;;;;;;;;;;4998092;28;20541;-72
2022/02/28 03:29:06;;;;;;;13.75;7.93;;;;;;;;;;4978948;28;20034;-73
2022/02/28 03:31:32;;;;;;;12.70;7.60;;;;;;;;;;4980588;28;20025;-72
2022/02/28 03:33:58;;;;;;;13.77;7.32;;;;;;;;;;4989378;28;20026;-72
2022/02/28 03:36:24;;;;;;;12.65;8.18;;;;;;;;;;4997557;28;20026;-73
2022/02/28 03:38:50;;;;;;;14.68;8.45;;;;;;;;;;4997953;28;20027;-74
2022/02/28 03:41:18;;;;;;;13.35;9.40;;;;;;;;;;4998185;28;20444;-73
2022/02/28 03:43:47;;;;;;;17.20;9.00;;;;;;;;;;4995355;28;20391;-72
2022/02/28 03:46:13;;;;;;;14.55;9.10;;;;;;;;;;4991778;28;20062;-71
2022/02/28 03:48:43;;;;;;;16.55;8.75;;;;;;;;;;4996938;28;20027;-73
2022/02/28 03:51:10;;;;;;;14.32;7.95;;;;;;;;;;4994544;28;20025;-72
2022/02/28 03:53:36;;;;;;;14.65;8.73;;;;;;;;;;5001104;28;20452;-73
2022/02/28 03:56:02;;;;;;;13.32;9.13;;;;;;;;;;4989914;28;20086;-73
2022/02/28 03:58:28;;;;;;;12.60;8.02;;;;;;;;;;4997228;28;20045;-73
2022/02/28 04:00:54;;;;;;;14.68;8.63;;;;;;;;;;4990842;28;20031;-74
2022/02/28 04:03:20;;;;;;;14.13;8.00;;;;;;;;;;4998783;28;20034;-73
2022/02/28 04:05:46;;;;;;;15.60;9.50;;;;;;;;;;5000257;28;20027;-73
2022/02/28 04:08:12;;;;;;;15.27;7.80;;;;;;;;;;5000198;28;20114;-73
2022/02/28 04:10:38;;;;;;;12.77;7.93;;;;;;;;;;4997850;28;20033;-73
2022/02/28 04:13:04;;;;;;;13.32;8.65;;;;;;;;;;4991164;28;20440;-73
2022/02/28 04:15:30;;;;;;;16.58;9.45;;;;;;;;;;4999456;28;20417;-73
2022/02/28 04:17:56;;;;;;;26.90;9.25;;;;;;;;;;4998334;28;20038;-73
2022/02/28 04:20:23;;;;;;;16.08;8.73;;;;;;;;;;4996695;28;20067;-73
2022/02/28 04:22:49;;;;;;;21.25;9.60;;;;;;;;;;5002349;28;20022;-74
2022/02/28 04:25:15;;;;;;;22.83;10.63;;;;;;;;;;4997398;28;20121;-73
2022/02/28 04:27:42;;;;;;;22.77;13.18;;;;;;;;;;4983094;28;20155;-72
2022/02/28 04:30:09;;;;;;;26.00;14.65;;;;;;;;;;4999760;28;20030;-73
2022/02/28 04:32:35;;;;;;;15.95;9.00;;;;;;;;;;5001318;28;20041;-73
2022/02/28 04:35:05;;;;;;;17.88;8.90;;;;;;;;;;5002031;28;20040;-72
2022/02/28 04:37:32;;;;;;;15.45;8.98;;;;;;;;;;5000389;28;20088;-72
2022/02/28 04:39:58;;;;;;;14.35;8.77;;;;;;;;;;4988640;28;20054;-73
2022/02/28 04:42:24;;;;;;;14.57;9.05;;;;;;;;;;4992482;28;20026;-72
2022/02/28 04:44:50;;;;;;;15.40;9.48;;;;;;;;;;4992769;28;20388;-73
2022/02/28 04:47:17;;;;;;;15.05;9.63;;;;;;;;;;4985109;28;20110;-72
2022/02/28 04:49:47;;;;;;;17.00;9.05;;;;;;;;;;4984793;28;20029;-73
2022/02/28 04:52:14;;;;;;;14.70;9.65;;;;;;;;;;4998695;28;20073;-73
2022/02/28 04:54:40;;;;;;;19.17;9.70;;;;;;;;;;5002859;28;20026;-73
2022/02/28 04:57:10;;;;;;;18.27;9.18;;;;;;;;;;5003389;28;20046;-72
2022/02/28 04:59:36;;;;;;;17.88;9.75;;;;;;;;;;4999031;28;20439;-73
2022/02/28 05:02:02;;;;;;;22.60;10.48;;;;;;;;;;5000749;28;20380;-74
2022/02/28 05:04:28;;;;;;;25.23;13.43;;;;;;;;;;5001879;28;20034;-72
2022/02/28 05:06:54;;;;;;;18.27;10.30;;;;;;;;;;5000783;28;20057;-72
2022/02/28 05:09:20;;;;;;;15.73;9.30;;;;;;;;;;4994190;28;20038;-72
2022/02/28 05:11:46;;;;;;;19.70;10.05;;;;;;;;;;4983494;28;20065;-72
2022/02/28 05:14:13;;;;;;;18.58;9.88;;;;;;;;;;4981921;28;20061;-72
2022/02/28 05:16:40;;;;;;;20.95;10.65;;;;;;;;;;5001947;28;20022;-72
2022/02/28 05:19:06;;;;;;;17.63;10.40;;;;;;;;;;4999355;28;20117;-73
2022/02/28 05:21:35;;;;;;;18.70;10.55;;;;;;;;;;5000230;28;20022;-72
2022/02/28 05:24:01;;;;;;;27.98;16.35;;;;;;;;;;5001213;28;20097;-73
2022/02/28 05:26:29;;;;;;;29.20;16.65;;;;;;;;;;4999618;28;20026;-72
2022/02/28 05:28:55;;;;;;;19.85;11.73;;;;;;;;;;5001406;28;20054;-72
2022/02/28 05:31:21;;;;;;;14.77;9.85;;;;;;;;;;5001662;28;20030;-72
2022/02/28 05:33:50;;;;;;;15.30;9.55;;;;;;;;;;5002963;28;20480;-73
2022/02/28 05:36:16;;;;;;;21.35;11.32;;;;;;;;;;5004472;28;20078;-73
2022/02/28 05:38:42;;;;;;;19.85;11.18;;;;;;;;;;5002474;28;20060;-73
2022/02/28 05:41:08;;;;;;;18.55;10.85;;;;;;;;;;5004592;28;20033;-72
2022/02/28 05:43:34;;;;;;;20.25;10.52;;;;;;;;;;5003915;28;20086;-73
2022/02/28 05:46:01;;;;;;;15.68;10.32;;;;;;;;;;5007167;28;20029;-73
2022/02/28 05:48:27;;;;;;;22.23;10.05;;;;;;;;;;4991744;28;20034;-73
2022/02/28 05:50:53;;;;;;;18.92;10.18;;;;;;;;;;4985932;28;20021;-72
2022/02/28 05:53:19;;;;;;;21.88;10.95;;;;;;;;;;4999237;28;20409;-73
2022/02/28 05:55:45;;;;;;;16.25;9.90;;;;;;;;;;4986306;28;20073;-71
2022/02/28 05:58:14;;;;;;;26.75;11.27;;;;;;;;;;4973625;28;20035;-74
2022/02/28 06:00:41;;;;;;;21.98;11.20;;;;;;;;;;4993536;28;20415;-73
2022/02/28 06:03:09;;;;;;;22.75;13.13;;;;;;;;;;4995094;28;20041;-74
2022/02/28 06:05:37;;;;;;;20.92;12.00;;;;;;;;;;4993976;28;20500;-74
2022/02/28 06:08:04;;;;;;;17.83;11.57;;;;;;;;;;4972880;28;20040;-73
2022/02/28 06:10:30;;;;;;;22.05;12.82;;;;;;;;;;4994689;28;20376;-73
2022/02/28 06:12:58;;;;;;;21.45;11.93;;;;;;;;;;4994433;28;20037;-74
2022/02/28 06:15:24;;;;;;;20.63;12.02;;;;;;;;;;4994686;28;20046;-75
2022/02/28 06:17:50;;;;;;;18.77;12.43;;;;;;;;;;4979971;28;20049;-76
2022/02/28 06:20:16;;;;;;;22.08;13.27;;;;;;;;;;4999457;28;20053;-73
2022/02/28 06:22:44;;;;;;;21.70;13.20;;;;;;;;;;4994589;28;20488;-77
2022/02/28 06:25:10;;;;;;;22.45;13.90;;;;;;;;;;5000590;28;20081;-77
2022/02/28 06:27:39;;;;;;;20.38;13.07;;;;;;;;;;4990038;28;20280;-78
2022/02/28 06:30:08;;;;;;;20.40;12.82;;;;;;;;;;5011490;28;20480;-76
2022/02/28 06:32:36;;;;;;;20.13;12.45;;;;;;;;;;5007025;28;20025;-75
2022/02/28 06:35:02;;;;;;;19.27;12.27;;;;;;;;;;5016214;28;20053;-75
2022/02/28 06:37:28;;;;;;;23.88;12.32;;;;;;;;;;4993532;28;20042;-74
2022/02/28 06:39:54;;;;;;;20.67;12.02;;;;;;;;;;5010795;28;20228;-76
2022/02/28 06:42:35;;;;;;;18.50;11.27;;;;;;;;;;4981364;28;20035;-75
2022/02/28 06:45:14;;;;;;;20.58;11.35;;;;;;;;;;4980309;28;20044;-76
2022/02/28 06:47:43;;;;;;;28.75;17.98;;;;;;;;;;4992825;28;20404;-75
2022/02/28 06:50:15;;;;;;;47.72;30.85;;;;;;;;;;4989604;28;20033;-78
2022/02/28 06:52:42;;;;;;;27.42;16.55;;;;;;;;;;4996361;28;20018;-77
2022/02/28 06:55:08;;;;;;;26.23;19.23;;;;;;;;;;5007326;28;20041;-76
2022/02/28 06:57:35;;;;;;;17.88;10.90;;;;;;;;;;5013035;28;20034;-77
2022/02/28 07:00:01;;;;;;;19.50;10.73;;;;;;;;;;5008578;28;20062;-77
2022/02/28 07:05:22;;;;;;;20.77;11.13;;;;;;;;;;5079870;23;20061;-77
2022/02/28 07:07:53;;;;;;;21.13;11.40;;;;;;;;;;5016158;28;21338;-73
2022/02/28 07:10:25;;;;;;;17.70;12.50;;;;;;;;;;5005361;28;20484;-72
2022/02/28 07:12:51;;;;;;;18.17;11.48;;;;;;;;;;5016227;28;20030;-72
2022/02/28 07:15:25;;;;;;;19.45;12.48;;;;;;;;;;5018087;28;20033;-75
2022/02/28 07:17:51;;;;;;;15.98;11.10;;;;;;;;;;5006858;28;20038;-74
2022/02/28 07:20:17;;;;;;;16.10;10.02;;;;;;;;;;5007154;28;20029;-78
2022/02/28 07:22:43;;;;;;;20.70;11.55;;;;;;;;;;5016617;28;20041;-76
2022/02/28 07:25:09;;;;;;;19.63;11.05;;;;;;;;;;5011925;28;20069;-80
2022/02/28 07:27:35;;;;;;;18.13;10.13;;;;;;;;;;5002446;28;20125;-81
2022/02/28 07:30:01;;;;;;;29.38;15.27;;;;;;;;;;5012803;28;20033;-86
2022/02/28 07:32:27;;;;;;;13.18;10.10;;;;;;;;;;5006284;28;20105;-76
2022/02/28 07:34:53;;;;;;;21.38;12.82;;;;;;;;;;5011025;28;20049;-79
2022/02/28 07:37:19;;;;;;;14.75;10.98;;;;;;;;;;4996531;28;20037;-76
2022/02/28 07:39:46;;;;;;;17.35;10.55;;;;;;;;;;5006391;28;20054;-74
2022/02/28 07:42:12;;;;;;;17.60;9.82;;;;;;;;;;4989577;28;20042;-75
2022/02/28 07:44:44;;;;;;;21.95;14.77;;;;;;;;;;5001623;28;20113;-75
2022/02/28 07:47:11;;;;;;;;;;;;;;;;;;5011746;28;20037;-75
2022/02/28 07:49:39;;;;;;;30.08;21.63;;;;;;;;;;5004472;28;20366;-77
2022/02/28 07:52:09;;;;;;;29.35;22.90;;;;;;;;;;5006858;28;20030;-77
2022/02/28 07:54:38;;;;;;;28.90;20.15;;;;;;;;;;5000378;28;20026;-77
2022/02/28 07:57:04;;;;;;;20.38;12.63;;;;;;;;;;4997752;28;20026;-77
2022/02/28 07:59:30;;;;;;;17.67;10.75;;;;;;;;;;5019655;28;20026;-76
2022/02/28 08:02:22;;;;;;;23.92;14.52;;;;;;;;;;4939643;28;20536;-76
2022/02/28 08:04:50;;;;;;;18.63;13.57;;;;;;;;;;4955849;29;20067;-77
2022/02/28 08:07:17;;;;;;;17.20;11.95;;;;;;;;;;4946078;29;20032;-75
2022/02/28 08:09:46;;;;;;;16.33;11.27;;;;;;;;;;4940660;29;20051;-75
2022/02/28 08:12:17;;;;;;;17.67;11.00;;;;;;;;;;4959449;29;20063;-77
2022/02/28 08:14:52;;;;;;;22.10;12.20;;;;;;;;;;4952253;29;20142;-76
2022/02/28 08:17:23;;;;;;;18.20;13.77;;;;;;;;;;4931606;29;20051;-71
2022/02/28 08:19:53;;;;;;;21.27;12.93;;;;;;;;;;4948437;29;20043;-72
2022/02/28 08:22:25;;;;;;;17.08;11.68;;;;;;;;;;4949557;29;20147;-71
2022/02/28 08:25:01;;;;;;;18.67;13.40;;;;;;;;;;4880282;29;20057;-71
2022/02/28 08:27:28;;;;;;;22.80;14.68;;;;;;;;;;4867441;29;20158;-75
2022/02/28 08:29:54;;;;;;;20.73;12.60;;;;;;;;;;4850156;29;20033;-76
2022/02/28 08:32:20;;;;;;;16.25;9.32;;;;;;;;;;4894261;29;20056;-77
2022/02/28 08:35:01;;;;;;;12.35;9.40;;;;;;;;;;4903046;29;20013;-78
2022/02/28 08:37:30;;;;;;;13.25;9.07;;;;;;;;;;4935901;29;20052;-79
2022/02/28 08:40:18;;;;;;;16.85;9.32;;;;;;;;;;4912636;29;20032;-78
2022/02/28 08:42:46;;;;;;;13.23;9.18;;;;;;;;;;4935646;28;20426;-77
2022/02/28 08:45:13;;;;;;;14.85;9.40;;;;;;;;;;4925926;28;20041;-77
2022/02/28 08:47:42;;;;;;;13.93;9.20;;;;;;;;;;4893485;29;20036;-77
2022/02/28 08:50:09;;;;;;;12.52;8.55;;;;;;;;;;4900247;29;20534;-77
2022/02/28 08:52:37;;;;;;;13.10;9.05;;;;;;;;;;4885211;29;20097;-81
2022/02/28 08:58:35;;;;;;;12.38;8.43;;;;;;;;;;4953493;28;20080;-80
2022/02/28 09:01:03;;;;;;;12.20;8.13;;;;;;;;;;4926910;29;20032;-78
2022/02/28 09:03:33;;;;;;;12.77;8.38;;;;;;;;;;4936375;28;20068;-75
2022/02/28 09:06:01;;;;;;;13.18;8.40;;;;;;;;;;4905707;29;20044;-78
2022/02/28 09:08:27;;;;;;;15.05;9.95;;;;;;;;;;4910640;29;20040;-72
2022/02/28 09:10:58;;;;;;;15.15;9.57;;;;;;;;;;4942234;29;20555;-72
2022/02/28 09:13:26;;;;;;;12.57;8.73;;;;;;;;;;4938560;29;20035;-73
2022/02/28 09:15:52;;;;;;;14.05;8.80;;;;;;;;;;4952993;29;20032;-72
2022/02/28 09:18:18;;;;;;;16.25;10.35;;;;;;;;;;4940147;29;20044;-73
2022/02/28 09:20:50;;;;;;;15.43;10.05;;;;;;;;;;4950840;29;20060;-74
2022/02/28 09:23:24;;;;;;;21.27;8.45;;;;;;;;;;4950016;29;20112;-77
2022/02/28 09:25:55;;;;;;;14.77;9.63;;;;;;;;;;4939035;29;20044;-79
2022/02/28 09:28:46;;;;;;;17.20;9.35;;;;;;;;;;4933654;29;20036;-74
2022/02/28 09:31:13;;;;;;;17.70;10.70;;;;;;;;;;4908869;29;20036;-72
2022/02/28 09:33:41;;;;;;;15.43;9.88;;;;;;;;;;4938178;28;20031;-77
2022/02/28 09:36:10;;;;;;;21.10;15.32;;;;;;;;;;5000256;28;20050;-77
2022/02/28 09:38:42;;;;;;;14.60;9.90;;;;;;;;;;4998985;28;20046;-78
2022/02/28 09:41:10;;;;;;;21.52;13.23;;;;;;;;;;5013713;28;20043;-77
2022/02/28 09:43:37;;;;;;;21.13;12.15;;;;;;;;;;5011243;28;20030;-76
2022/02/28 09:46:13;;;;;;;23.90;11.45;;;;;;;;;;5010953;28;20042;-76
2022/02/28 09:48:39;;;;;;;12.90;8.70;;;;;;;;;;5009867;28;20407;-76
2022/02/28 09:51:05;;;;;;;17.00;10.77;;;;;;;;;;5006853;28;20033;-78
2022/02/28 09:53:33;;;;;;;10.20;7.00;;;;;;;;;;5010786;28;20064;-78
2022/02/28 09:56:02;;;;;;;16.50;8.35;;;;;;;;;;5015764;28;20476;-77
2022/02/28 09:58:32;;;;;;;12.30;7.32;;;;;;;;;;5012936;28;20045;-77
2022/02/28 10:01:00;;;;;;;17.48;8.20;;;;;;;;;;5018558;28;20025;-74
2022/02/28 10:03:29;;;;;;;12.27;6.97;;;;;;;;;;5005012;28;20053;-74
2022/02/28 10:06:01;;;;;;;13.15;9.68;;;;;;;;;;5032374;28;20049;-77
2022/02/28 10:08:39;;;;;;;9.18;6.40;;;;;;;;;;5018234;28;20049;-77
2022/02/28 10:11:12;;;;;;;9.35;6.65;;;;;;;;;;5016895;28;20103;-76
2022/02/28 10:13:52;;;;;;;18.07;7.40;;;;;;;;;;5019440;28;20033;-76
2022/02/28 10:16:36;;;;;;;8.80;6.45;;;;;;;;;;4985610;28;20279;-77
2022/02/28 10:19:23;;;;;;;19.23;7.97;;;;;;;;;;5034959;28;20093;-81
2022/02/28 10:22:05;;;;;;;21.42;14.30;;;;;;;;;;5036437;28;20047;-79
2022/02/28 10:25:06;;;;;;;9.75;6.85;;;;;;;;;;4994291;28;20031;-80
2022/02/28 10:27:46;;;;;;;12.50;7.00;;;;;;;;;;4972773;28;20194;-76
2022/02/28 10:30:39;;;;;;;11.57;6.25;;;;;;;;;;4983339;28;20046;-82
2022/02/28 10:33:46;;;;;;;15.98;6.72;;;;;;;;;;4947484;28;20039;-74
2022/02/28 10:36:17;;;;;;;8.38;5.65;;;;;;;;;;5209531;23;20042;-73
2022/02/28 10:38:45;;;;;;;10.15;6.25;;;;;;;;;;4996597;28;20045;-72
2022/02/28 10:41:17;;;;;;;8.02;5.60;;;;;;;;;;4985381;28;20030;-73
2022/02/28 10:43:44;;;;;;;10.70;5.82;;;;;;;;;;4983074;28;20036;-72
2022/02/28 10:46:21;;;;;;;8.45;5.45;;;;;;;;;;4993914;28;20033;-72
2022/02/28 10:48:54;;;;;;;10.57;5.60;;;;;;;;;;4994729;28;20076;-74
2022/02/28 10:51:20;;;;;;;9.18;5.78;;;;;;;;;;4994526;28;20030;-74
2022/02/28 10:53:46;;;;;;;9.38;5.78;;;;;;;;;;5002420;28;20057;-71
2022/02/28 10:56:12;;;;;;;6.50;4.80;;;;;;;;;;5001290;28;20085;-75
2022/02/28 10:58:38;;;;;;;11.15;5.85;;;;;;;;;;4992547;28;20043;-75
2022/02/28 11:01:06;;;;;;;10.13;5.78;;;;;;;;;;4999450;28;20077;-75
2022/02/28 11:03:50;;;;;;;8.95;5.63;;;;;;;;;;4992914;28;20034;-75
2022/02/28 11:06:23;;;;;;;11.60;5.90;;;;;;;;;;4998812;28;20042;-76
2022/02/28 11:09:03;;;;;;;11.85;7.30;;;;;;;;;;5002537;28;20062;-71
2022/02/28 11:12:03;;;;;;;11.50;6.15;;;;;;;;;;4994400;28;20037;-69
2022/02/28 11:14:49;;;;;;;11.60;5.68;;;;;;;;;;4999583;28;20135;-68
2022/02/28 11:17:18;;;;;;;15.63;5.85;;;;;;;;;;4983380;28;20527;-74
2022/02/28 11:19:46;;;;;;;9.00;5.38;;;;;;;;;;4987094;28;20030;-76
2022/02/28 11:27:35;;;;;;;7.97;4.95;;;;;;;;;;5595520;23;20074;-74
2022/02/28 11:30:03;;;;;;;12.07;5.43;;;;;;;;;;5027409;28;20041;-75
2022/02/28 11:32:30;;;;;;;12.02;5.30;;;;;;;;;;5016354;28;20014;-76
2022/02/28 11:35:16;;;;;;;12.13;5.28;;;;;;;;;;5017710;28;20526;-77
2022/02/28 11:37:42;;;;;;;11.13;5.00;;;;;;;;;;5010368;28;20045;-77
2022/02/28 11:40:08;;;;;;;7.90;4.72;;;;;;;;;;5017226;28;20100;-74
2022/02/28 11:42:53;;;;;;;10.07;5.60;;;;;;;;;;5016815;28;20033;-75
2022/02/28 11:45:22;;;;;;;12.60;5.57;;;;;;;;;;5018955;28;20045;-75
2022/02/28 11:48:07;;;;;;;9.55;4.75;;;;;;;;;;5013892;28;20018;-76
2022/02/28 11:50:50;;;;;;;10.13;5.45;;;;;;;;;;5016876;28;20033;-76
2022/02/28 11:53:35;;;;;;;8.73;5.30;;;;;;;;;;5026429;28;20022;-78
2022/02/28 11:56:22;;;;;;;13.48;6.05;;;;;;;;;;5026889;28;20404;-78
2022/02/28 11:59:07;;;;;;;11.48;6.18;;;;;;;;;;5028496;28;20045;-79
2022/02/28 12:01:37;;;;;;;14.30;5.70;;;;;;;;;;5025497;28;20074;-76
2022/02/28 12:04:19;;;;;;;8.63;5.32;;;;;;;;;;5024141;28;20022;-79
2022/02/28 12:06:54;;;;;;;13.18;5.55;;;;;;;;;;5021780;28;20033;-73
2022/02/28 12:09:33;;;;;;;10.43;4.97;;;;;;;;;;5016028;28;20052;-75
2022/02/28 12:12:12;;;;;;;10.77;5.47;;;;;;;;;;5023234;28;20087;-71
2022/02/28 12:22:54;;;;;;;11.77;6.18;;;;;;;;;;5349723;23;20058;-73
2022/02/28 12:25:33;;;;;;;15.88;5.53;;;;;;;;;;5008265;28;20026;-72
2022/02/28 12:28:23;;;;;;;11.70;6.22;;;;;;;;;;5006530;28;20041;-72
2022/02/28 12:30:52;;;;;;;11.68;6.45;;;;;;;;;;4995079;28;20066;-73
2022/02/28 12:33:20;;;;;;;10.48;6.65;;;;;;;;;;5012090;28;20033;-72
2022/02/28 12:35:49;;;;;;;10.20;6.68;;;;;;;;;;5010301;28;20018;-73
2022/02/28 12:38:16;;;;;;;12.32;6.20;;;;;;;;;;5007039;28;20036;-74
2022/02/28 12:40:52;;;;;;;9.70;6.85;;;;;;;;;;4999057;28;20026;-74
2022/02/28 12:43:20;;;;;;;16.08;6.93;;;;;;;;;;5000654;28;20476;-72
2022/02/28 12:45:51;;;;;;;13.95;8.00;;;;;;;;;;5002197;28;20068;-72
2022/02/28 12:48:21;;;;;;;16.27;7.60;;;;;;;;;;4993187;28;20136;-75
2022/02/28 12:50:47;;;;;;;11.13;7.10;;;;;;;;;;4997411;28;20030;-73
2022/02/28 12:53:16;;;;;;;20.90;8.45;;;;;;;;;;4999565;28;20033;-73
2022/02/28 12:55:49;;;;;;;17.70;10.13;;;;;;;;;;4996088;28;20089;-73
2022/02/28 12:58:21;;;;;;;19.10;11.95;;;;;;;;;;4997495;28;20038;-72
2022/02/28 13:00:51;;;;;;;13.25;8.48;;;;;;;;;;4997768;28;20109;-71
2022/02/28 13:03:17;;;;;;;20.52;13.85;;;;;;;;;;5004470;28;20030;-71
2022/02/28 13:05:59;;;;;;;17.13;11.60;;;;;;;;;;5001730;28;20010;-73
2022/02/28 13:08:25;;;;;;;20.98;13.25;;;;;;;;;;5001551;28;20078;-73
2022/02/28 13:11:10;;;;;;;24.83;14.20;;;;;;;;;;4996790;28;20077;-71
2022/02/28 13:13:37;;;;;;;22.52;14.50;;;;;;;;;;5005143;28;20486;-72
2022/02/28 13:16:03;;;;;;;23.08;13.82;;;;;;;;;;5000665;28;20117;-71
2022/02/28 13:18:30;;;;;;;17.92;11.98;;;;;;;;;;4997309;28;20372;-72
2022/02/28 13:20:56;;;;;;;20.70;11.38;;;;;;;;;;5000459;28;20026;-71
2022/02/28 13:23:23;;;;;;;19.95;12.57;;;;;;;;;;4997947;28;20038;-72
2022/02/28 13:25:53;;;;;;;25.13;14.48;;;;;;;;;;5001735;28;20390;-73
2022/02/28 13:28:33;;;;;;;24.30;14.60;;;;;;;;;;5004444;28;20097;-72
2022/02/28 13:31:04;;;;;;;26.73;15.75;;;;;;;;;;5003758;28;20092;-73
2022/02/28 13:33:31;;;;;;;23.35;14.18;;;;;;;;;;5007430;28;20085;-73
2022/02/28 13:35:57;;;;;;;22.00;14.30;;;;;;;;;;5006187;28;20089;-73
2022/02/28 13:38:48;;;;;;;22.80;15.32;;;;;;;;;;5020619;28;20064;-79
2022/02/28 13:41:26;;;;;;;17.85;13.25;;;;;;;;;;5016854;28;20034;-75
2022/02/28 13:43:52;;;;;;;23.02;15.18;;;;;;;;;;5008023;28;20030;-74
2022/02/28 13:46:18;;;;;;;16.65;12.45;;;;;;;;;;5012560;28;20149;-74
2022/02/28 13:48:53;;;;;;;26.30;16.27;;;;;;;;;;5005632;28;20036;-72
2022/02/28 13:51:28;;;;;;;22.77;14.27;;;;;;;;;;5001984;28;20057;-72
2022/02/28 13:54:06;;;;;;;23.23;15.30;;;;;;;;;;4993463;28;20047;-75
2022/02/28 13:56:33;;;;;;;18.00;12.45;;;;;;;;;;5001642;28;20109;-75
2022/02/28 13:59:12;;;;;;;17.73;12.48;;;;;;;;;;5011717;28;20051;-77
2022/02/28 14:01:58;;;;;;;18.92;12.10;;;;;;;;;;5005570;28;20033;-74
2022/02/28 14:04:48;;;;;;;24.33;13.00;;;;;;;;;;5000363;28;20061;-73
2022/02/28 14:07:14;;;;;;;21.60;12.75;;;;;;;;;;5005820;28;20406;-75
2022/02/28 14:09:40;;;;;;;18.38;12.25;;;;;;;;;;5004223;28;20433;-75
2022/02/28 14:12:06;;;;;;;19.17;12.55;;;;;;;;;;4999342;28;20399;-75
2022/02/28 14:14:33;;;;;;;20.48;14.48;;;;;;;;;;5000839;28;20105;-75
2022/02/28 14:17:00;;;;;;;22.23;15.27;;;;;;;;;;5005132;28;20026;-75
2022/02/28 14:19:40;;;;;;;17.65;12.88;;;;;;;;;;5005116;28;20030;-77
2022/02/28 14:22:06;;;;;;;19.15;14.55;;;;;;;;;;5008152;28;20038;-75
2022/02/28 14:24:32;;;;;;;22.13;14.85;;;;;;;;;;5009975;28;20021;-76
2022/02/28 14:27:01;;;;;;;20.58;14.48;;;;;;;;;;5014742;28;20013;-79
2022/02/28 14:29:33;;;;;;;22.15;15.57;;;;;;;;;;5012720;28;20042;-73
2022/02/28 14:32:00;;;;;;;23.25;17.27;;;;;;;;;;4999388;28;20042;-73
2022/02/28 14:34:29;;;;;;;22.48;16.38;;;;;;;;;;4998238;28;20025;-75
2022/02/28 14:36:56;;;;;;;20.60;15.73;;;;;;;;;;5000796;28;20368;-72
2022/02/28 14:39:23;;;;;;;20.38;16.38;;;;;;;;;;5002482;28;20084;-75
2022/02/28 14:41:50;;;;;;;21.55;16.30;;;;;;;;;;5008468;28;20041;-71
2022/02/28 14:44:17;;;;;;;20.17;16.73;;;;;;;;;;5019416;28;20034;-76
2022/02/28 14:46:44;;;;;;;20.60;16.30;;;;;;;;;;5014821;28;20025;-74
2022/02/28 14:49:12;;;;;;;22.15;17.23;;;;;;;;;;5000602;28;20030;-73
2022/02/28 14:51:45;;;;;;;22.45;17.38;;;;;;;;;;5004678;28;20018;-75
2022/02/28 14:54:14;;;;;;;21.33;17.38;;;;;;;;;;4996166;28;20530;-75
2022/02/28 14:56:41;;;;;;;24.70;18.15;;;;;;;;;;4999914;28;20107;-72
2022/02/28 14:59:08;;;;;;;23.73;18.02;;;;;;;;;;5001586;28;20046;-74